Карточка аэропорта USTR

Внимание!
Информация на этой странице в стадии наполнения.
Если вы не увидели какой-то информации, или заметили неточность - пожалуйста сообщите нам!
Спасибо!
Команда RU-STAFF
Название аэропортаРощино
Название аэропорта (англ.)Roshschino
Превышение378 ft. (115.2 m.)
Координаты57°10.098', 65°19.002'
Высота перехода700m
Эшелон переходаFL040
Коды ответчика5101-5137
Зона ОрВДТюмень РПИ (USTV)
Данные METARUSTR 281900Z 20005MPS CAVOK M19/M24 Q1047 R30/CLRD65 R21/CLRD65 NOSIG
Проноз погоды (TAF)USTR 281632Z 2818/2918 19003MPS 6000 SCT020 TEMPO 2818/2906 0500 IC HZ SCT002 SCT020 BECMG 2906/2907 9999
NOTAMshow/hide NOTAM
AWOS   TABLE

Информация о ВПП

ВПП Длина ВПП (м.) Покрытие Курс ВПП Частота ILS
033003Асфальтобетон34108.3
213003Асфальтобетон214110.7
122704Асфальтобетон121 
302704Асфальтобетон301 

Диспетчерские позиции

Позывной Наименование органа УВД Частота
USTR_TWRТюмень-Старт118.200
USTR_R_APPТюмень-Круг126.100
USTR_GNDТюмень-Руление119.000



Спутниковое изображение